Time;durP1;ratioP1;P1;durP2;ratioP2;P2;SDS_P1;SDS_P2;PMS_P1;PMS_P2;Temp;Humidity;BMP_temperature;BMP_pressure;BME280_temperature;BME280_humidity;BME280_pressure;Samples;Min_cycle;Max_cycle;Signal;HPM_P1;HPM_P2
2021/10/21 00:01:12;;;;;;;;;3.50;1.00;;;;;19.67;100.00;99197.53;5038465;28;45497;-81
2021/10/21 00:03:38;;;;;;;;;6.25;1.00;;;;;19.38;100.00;99253.00;5035356;28;45746;-82
2021/10/21 00:06:04;;;;;;;;;0.75;0.00;;;;;19.42;100.00;99210.59;5047809;28;46217;-81
2021/10/21 00:08:29;;;;;;;;;4.00;0.25;;;;;19.37;100.00;99221.91;5043288;28;45511;-82
2021/10/21 00:10:55;;;;;;;;;2.25;1.00;;;;;19.27;100.00;99210.72;5048330;28;45377;-85
2021/10/21 00:13:20;;;;;;;;;5.00;0.00;;;;;19.63;100.00;99207.03;5056271;28;45404;-82
2021/10/21 00:15:46;;;;;;;;;4.00;1.00;;;;;19.30;100.00;99204.94;5046494;28;45327;-82
2021/10/21 00:18:12;;;;;;;;;1.00;0.75;;;;;19.25;100.00;99193.19;5052950;28;45264;-82
2021/10/21 00:20:37;;;;;;;;;3.00;1.00;;;;;19.53;100.00;99177.09;5045603;28;45693;-82
2021/10/21 00:23:03;;;;;;;;;3.50;1.00;;;;;19.41;100.00;99200.91;5046400;28;45542;-82
2021/10/21 00:25:28;;;;;;;;;0.75;0.00;;;;;19.28;100.00;99220.41;5049738;28;46035;-82
2021/10/21 00:27:54;;;;;;;;;4.00;1.00;;;;;19.29;100.00;99215.88;5063291;28;45454;-82
2021/10/21 00:30:19;;;;;;;;;1.75;0.50;;;;;19.36;100.00;99236.31;5070002;28;45570;-82
2021/10/21 00:32:45;;;;;;;;;3.75;1.50;;;;;19.75;100.00;99221.50;5069101;28;45486;-82
2021/10/21 00:35:10;;;;;;;;;4.75;1.00;;;;;19.55;100.00;99228.63;5063213;28;46103;-82
2021/10/21 00:37:36;;;;;;;;;4.25;1.00;;;;;19.62;100.00;99210.72;5066437;28;45583;-82
2021/10/21 00:40:03;;;;;;;;;1.00;0.00;;;;;19.62;100.00;99241.00;5066876;28;45375;-82
2021/10/21 00:42:29;;;;;;;;;4.75;1.00;;;;;19.56;100.00;99232.94;5062115;28;45487;-82
2021/10/21 00:44:55;;;;;;;;;2.00;0.00;;;;;19.62;100.00;99234.81;5061756;28;45415;-82
2021/10/21 00:47:20;;;;;;;;;4.75;0.00;;;;;19.34;100.00;99277.66;5061334;28;45359;-82
2021/10/21 00:49:46;;;;;;;;;0.50;0.25;;;;;19.05;100.00;99234.03;5061506;28;45288;-82
2021/10/21 00:52:11;;;;;;;;;4.00;1.00;;;;;19.16;100.00;99234.50;5061375;28;45567;-82
2021/10/21 00:54:37;;;;;;;;;3.00;0.00;;;;;19.39;100.00;99219.81;5060978;28;46318;-82
2021/10/21 00:57:04;;;;;;;;;7.00;0.25;;;;;19.36;100.00;99249.69;5060273;28;45447;-82
2021/10/21 00:59:31;;;;;;;;;1.00;0.00;;;;;19.23;100.00;99257.63;5067402;28;45505;-82
2021/10/21 01:01:57;;;;;;;;;0.00;0.00;;;;;19.02;100.00;99263.03;5065963;28;45530;-82
2021/10/21 01:04:23;;;;;;;;;1.00;0.00;;;;;19.00;100.00;99271.25;5061671;28;46479;-82
2021/10/21 01:06:48;;;;;;;;;0.00;0.00;;;;;18.77;100.00;99251.06;5040591;28;45477;-82
2021/10/21 01:09:16;;;;;;;;;1.25;0.50;;;;;19.12;100.00;99252.00;5072446;27;45259;-81
2021/10/21 01:11:41;;;;;;;;;0.00;0.00;;;;;18.90;100.00;99259.22;5061854;28;45335;-81
2021/10/21 01:14:07;;;;;;;;;3.00;0.00;;;;;18.76;100.00;99302.91;5080476;28;45990;-81
2021/10/21 01:16:33;;;;;;;;;3.00;0.00;;;;;18.80;100.00;99312.22;5048876;28;45438;-81
2021/10/21 01:18:59;;;;;;;;;1.00;0.00;;;;;18.72;100.00;99313.16;5080443;28;45548;-82
2021/10/21 01:21:24;;;;;;;;;0.75;0.00;;;;;18.73;100.00;99311.31;5070578;28;45679;-82
2021/10/21 01:23:50;;;;;;;;;0.00;0.00;;;;;18.77;100.00;99301.88;5066310;28;46235;-82
2021/10/21 01:26:15;;;;;;;;;0.00;0.00;;;;;19.00;100.00;99302.53;5057383;28;45662;-82
2021/10/21 01:28:44;;;;;;;;;1.25;0.00;;;;;18.94;100.00;99308.63;5042298;28;45459;-82
2021/10/21 01:31:10;;;;;;;;;0.00;0.00;;;;;19.12;100.00;99349.13;5074179;28;45552;-82
2021/10/21 01:33:36;;;;;;;;;0.00;0.00;;;;;19.12;100.00;99325.03;5060870;28;45419;-82
2021/10/21 01:36:03;;;;;;;;;0.00;0.00;;;;;18.94;100.00;99320.16;5060547;28;45504;-82
2021/10/21 01:38:29;;;;;;;;;1.00;0.00;;;;;19.16;100.00;99357.59;5062985;28;45461;-82
2021/10/21 01:40:54;;;;;;;;;0.00;0.00;;;;;19.07;100.00;99356.91;5071304;28;45537;-82
2021/10/21 01:43:20;;;;;;;;;1.00;0.00;;;;;18.84;100.00;99349.09;5050855;28;48008;-82
2021/10/21 01:45:45;;;;;;;;;0.00;0.00;;;;;18.52;100.00;99361.03;5066351;28;45318;-83
2021/10/21 01:48:11;;;;;;;;;0.75;0.00;;;;;18.42;100.00;99403.28;5048882;28;45486;-82
2021/10/21 01:50:36;;;;;;;;;0.00;0.00;;;;;18.57;100.00;99384.59;5060877;28;45544;-81
2021/10/21 01:53:02;;;;;;;;;1.00;0.00;;;;;18.47;100.00;99363.47;5059396;28;45433;-82
2021/10/21 01:55:28;;;;;;;;;0.00;0.00;;;;;18.53;100.00;99418.84;5038071;28;45693;-82
2021/10/21 01:57:54;;;;;;;;;1.00;0.00;;;;;18.49;100.00;99422.91;5052332;28;45411;-82
2021/10/21 02:00:24;;;;;;;;;0.25;0.00;;;;;18.78;100.00;99416.69;5058305;28;45339;-82
2021/10/21 02:02:50;;;;;;;;;0.00;0.00;;;;;18.49;100.00;99430.09;5059923;28;45502;-82
2021/10/21 02:05:17;;;;;;;;;0.00;0.00;;;;;18.22;100.00;99515.25;5069296;28;45494;-83
2021/10/21 02:07:44;;;;;;;;;0.00;0.00;;;;;18.02;100.00;99492.75;5060592;28;45533;-83
2021/10/21 02:10:16;;;;;;;;;0.00;0.00;;;;;18.43;100.00;99414.78;5065958;28;45525;-82
2021/10/21 02:12:42;;;;;;;;;0.75;0.00;;;;;18.04;100.00;99532.63;5062776;28;45381;-82
2021/10/21 02:15:08;;;;;;;;;0.25;0.00;;;;;17.99;100.00;99470.91;5065202;28;45453;-82
2021/10/21 02:17:34;;;;;;;;;1.00;0.00;;;;;17.88;100.00;99478.34;5060669;28;45261;-82
2021/10/21 02:20:00;;;;;;;;;1.25;0.00;;;;;18.09;100.00;99506.22;5062627;28;45527;-82
2021/10/21 02:22:25;;;;;;;;;0.00;0.00;;;;;17.88;100.00;99499.72;5038310;28;46981;-82
2021/10/21 02:24:50;;;;;;;;;2.25;0.00;;;;;17.92;100.00;99487.66;5053219;28;45379;-82
2021/10/21 02:27:16;;;;;;;;;0.00;0.00;;;;;18.05;100.00;99496.88;5059516;28;45486;-82
2021/10/21 02:29:41;;;;;;;;;0.00;0.00;;;;;18.06;100.00;99536.78;5071529;28;45368;-82
2021/10/21 02:32:06;;;;;;;;;0.00;0.00;;;;;17.96;100.00;99552.22;5073853;28;45472;-82
2021/10/21 02:34:32;;;;;;;;;0.50;0.00;;;;;17.81;100.00;99551.34;5077848;28;45515;-82
2021/10/21 02:36:57;;;;;;;;;0.00;0.00;;;;;17.93;100.00;99576.66;5077567;28;45265;-83
2021/10/21 02:39:23;;;;;;;;;3.25;0.00;;;;;17.79;100.00;99590.75;5043568;28;45360;-82
2021/10/21 02:41:49;;;;;;;;;0.00;0.00;;;;;17.76;100.00;99599.13;5066272;28;45526;-82
2021/10/21 02:44:14;;;;;;;;;0.00;0.00;;;;;17.76;100.00;99593.78;5061118;28;45414;-82
2021/10/21 02:46:39;;;;;;;;;0.00;0.00;;;;;17.91;100.00;99621.38;5053111;28;45293;-82
2021/10/21 02:49:05;;;;;;;;;1.50;0.00;;;;;17.93;100.00;99632.75;5071518;27;45474;-82
2021/10/21 02:51:30;;;;;;;;;0.00;0.00;;;;;17.92;100.00;99610.53;5049549;28;48213;-82
2021/10/21 02:53:55;;;;;;;;;0.00;0.00;;;;;17.83;100.00;99658.84;5063057;28;45516;-82
2021/10/21 02:56:21;;;;;;;;;1.00;0.00;;;;;18.12;100.00;99679.53;5069108;28;45314;-83
2021/10/21 02:58:46;;;;;;;;;0.00;0.00;;;;;18.06;100.00;99689.06;5067198;28;46062;-82
2021/10/21 03:01:12;;;;;;;;;1.00;0.00;;;;;18.13;100.00;99722.06;5070685;28;45560;-82
2021/10/21 03:03:38;;;;;;;;;3.00;0.00;;;;;17.62;100.00;99718.19;5056682;28;45482;-83
2021/10/21 03:06:03;;;;;;;;;0.00;0.00;;;;;17.58;100.00;99723.00;5062694;28;45403;-82
2021/10/21 03:08:28;;;;;;;;;1.00;0.00;;;;;17.61;100.00;99743.19;5061790;28;45584;-83
2021/10/21 03:10:54;;;;;;;;;0.75;0.00;;;;;17.40;100.00;99753.59;5065412;28;45440;-82
2021/10/21 03:13:19;;;;;;;;;2.00;0.00;;;;;17.66;100.00;99737.38;5072905;28;45474;-82
2021/10/21 03:15:45;;;;;;;;;0.00;0.00;;;;;17.66;100.00;99764.91;5063079;28;45287;-83
2021/10/21 03:18:10;;;;;;;;;0.00;0.00;;;;;17.67;100.00;99776.38;5047790;28;45418;-83
2021/10/21 03:20:35;;;;;;;;;0.00;0.00;;;;;17.57;100.00;99816.63;5049026;28;48043;-82
2021/10/21 03:23:02;;;;;;;;;0.00;0.00;;;;;17.52;100.00;99856.34;5060560;28;45375;-82
2021/10/21 03:25:28;;;;;;;;;1.00;0.00;;;;;17.67;100.00;99873.34;5043177;28;45498;-82
2021/10/21 03:27:53;;;;;;;;;0.00;0.00;;;;;17.99;100.00;99903.66;5058837;28;45791;-80
2021/10/21 03:30:19;;;;;;;;;1.25;0.00;;;;;17.61;100.00;99914.06;5060829;28;45419;-83
2021/10/21 03:32:44;;;;;;;;;1.25;0.00;;;;;17.31;100.00;99949.41;5058569;28;45564;-82
2021/10/21 03:35:10;;;;;;;;;1.50;0.00;;;;;17.63;100.00;99972.66;5073939;28;45472;-82
2021/10/21 03:37:36;;;;;;;;;0.75;0.00;;;;;17.53;100.00;99967.47;5076411;27;45335;-82
2021/10/21 03:40:02;;;;;;;;;0.50;0.00;;;;;17.65;100.00;99992.03;5047232;28;47711;-82
2021/10/21 03:42:28;;;;;;;;;0.00;0.00;;;;;17.04;100.00;99988.75;5057823;28;45413;-83
2021/10/21 03:44:57;;;;;;;;;2.00;0.00;;;;;17.07;100.00;100012.44;5058876;28;45447;-82
2021/10/21 03:47:25;;;;;;;;;1.00;0.00;;;;;17.26;100.00;100053.16;5066900;27;45576;-82
2021/10/21 03:49:52;;;;;;;;;0.75;0.00;;;;;16.87;100.00;100045.69;5077740;28;45475;-83
2021/10/21 03:52:18;;;;;;;;;1.00;0.00;;;;;16.94;100.00;100083.22;5070981;28;45507;-82
2021/10/21 03:54:48;;;;;;;;;0.00;0.00;;;;;17.07;100.00;100083.63;5051320;28;45182;-82
2021/10/21 03:57:14;;;;;;;;;1.00;0.00;;;;;17.03;100.00;100095.59;5072644;28;45441;-81
2021/10/21 03:59:39;;;;;;;;;1.00;0.00;;;;;16.43;100.00;100111.59;5065360;28;45355;-81
2021/10/21 04:02:06;;;;;;;;;0.00;0.00;;;;;16.66;100.00;100128.75;5061250;28;45573;-81
2021/10/21 04:04:31;;;;;;;;;0.00;0.00;;;;;16.98;100.00;100127.25;5054762;28;45442;-81
2021/10/21 04:06:56;;;;;;;;;1.00;0.00;;;;;16.73;100.00;100152.97;5045195;28;45763;-81
2021/10/21 04:09:22;;;;;;;;;1.00;0.00;;;;;17.12;100.00;100164.84;5052305;28;48210;-81
2021/10/21 04:11:48;;;;;;;;;0.00;0.00;;;;;16.95;100.00;100183.59;5063273;28;45426;-81
2021/10/21 04:14:13;;;;;;;;;0.00;0.00;;;;;17.11;100.00;100173.03;5063320;28;45352;-82
2021/10/21 04:16:39;;;;;;;;;0.00;0.00;;;;;17.10;100.00;100185.53;5062230;28;45523;-82
2021/10/21 04:19:04;;;;;;;;;1.00;0.00;;;;;17.04;100.00;100194.16;5065909;28;45388;-82
2021/10/21 04:21:29;;;;;;;;;2.50;0.00;;;;;17.25;100.00;100196.44;5071023;28;45316;-82
2021/10/21 04:23:55;;;;;;;;;1.00;0.00;;;;;17.37;100.00;100218.34;5055933;28;45349;-82
2021/10/21 04:26:21;;;;;;;;;0.50;0.00;;;;;17.31;100.00;100214.47;5038795;28;45585;-81
2021/10/21 04:28:47;;;;;;;;;0.00;0.00;;;;;17.24;100.00;100221.44;5061826;28;46018;-81
2021/10/21 04:31:12;;;;;;;;;2.75;0.00;;;;;17.29;100.00;100234.31;5043457;28;45436;-81
2021/10/21 04:33:37;;;;;;;;;1.00;0.00;;;;;17.53;100.00;100213.06;5062149;28;45274;-82
2021/10/21 04:36:03;;;;;;;;;0.75;0.00;;;;;17.16;100.00;100229.41;5065308;28;45388;-82
2021/10/21 04:38:28;;;;;;;;;1.00;0.00;;;;;17.38;100.00;100236.88;5062869;28;46502;-81
2021/10/21 04:40:54;;;;;;;;;0.00;0.00;;;;;17.24;100.00;100250.78;5071241;28;45524;-81
2021/10/21 04:43:19;;;;;;;;;1.25;0.00;;;;;17.43;100.00;100255.06;5073238;27;45481;-81
2021/10/21 04:45:45;;;;;;;;;0.75;0.00;;;;;17.51;100.00;100252.41;5072926;28;45560;-81
2021/10/21 04:48:10;;;;;;;;;0.00;0.00;;;;;17.79;100.00;100269.09;5074009;28;46310;-81
2021/10/21 04:50:35;;;;;;;;;2.00;0.00;;;;;17.46;100.00;100271.59;5065820;28;45435;-81
2021/10/21 04:53:01;;;;;;;;;0.00;0.00;;;;;17.58;100.00;100272.13;5068647;28;45594;-82
2021/10/21 04:55:27;;;;;;;;;2.00;0.00;;;;;17.59;100.00;100282.66;5063876;28;45451;-81
2021/10/21 04:57:52;;;;;;;;;1.00;1.00;;;;;17.68;100.00;100288.06;5056279;28;46159;-83
2021/10/21 05:00:19;;;;;;;;;3.00;1.00;;;;;17.44;100.00;100291.44;5041884;28;45647;-84
2021/10/21 05:02:45;;;;;;;;;0.25;0.25;;;;;17.50;100.00;100306.81;5058400;28;45388;-84
2021/10/21 05:05:10;;;;;;;;;2.50;0.00;;;;;17.35;100.00;100324.41;5062018;28;45379;-84
2021/10/21 05:07:36;;;;;;;;;0.00;0.00;;;;;17.13;100.00;100339.94;5068850;27;46174;-84
2021/10/21 05:10:02;;;;;;;;;0.00;0.00;;;;;17.27;100.00;100346.56;5062491;28;45525;-83
2021/10/21 05:12:27;;;;;;;;;1.75;0.00;;;;;17.20;100.00;100361.53;5059827;28;45447;-84
2021/10/21 05:14:52;;;;;;;;;0.00;0.00;;;;;17.13;100.00;100379.13;5066621;28;45314;-84
2021/10/21 05:17:19;;;;;;;;;4.50;0.00;;;;;17.08;100.00;100360.09;5043711;28;48479;-83
2021/10/21 05:19:44;;;;;;;;;0.00;0.00;;;;;17.04;100.00;100364.88;5060853;28;45431;-82
2021/10/21 05:22:10;;;;;;;;;1.75;0.00;;;;;16.92;100.00;100367.94;5060742;28;45524;-83
2021/10/21 05:24:36;;;;;;;;;1.50;0.00;;;;;17.01;100.00;100361.69;5060755;28;45521;-84
2021/10/21 05:27:01;;;;;;;;;2.75;0.00;;;;;17.19;100.00;100381.19;5064075;28;45436;-84
2021/10/21 05:29:27;;;;;;;;;0.00;0.00;;;;;17.25;100.00;100395.72;5036446;28;45444;-84
2021/10/21 05:31:53;;;;;;;;;3.00;0.00;;;;;17.19;100.00;100392.69;5062821;28;45457;-84
2021/10/21 05:34:19;;;;;;;;;4.00;0.00;;;;;17.20;100.00;100391.72;5062025;28;45257;-85
2021/10/21 05:36:44;;;;;;;;;1.00;0.00;;;;;17.39;100.00;100405.88;5039837;28;48036;-89
2021/10/21 05:39:10;;;;;;;;;0.00;0.00;;;;;17.61;100.00;100408.00;5054953;28;45372;-83
2021/10/21 05:41:35;;;;;;;;;3.25;1.00;;;;;17.67;100.00;100415.41;5040337;28;45473;-87
2021/10/21 05:44:01;;;;;;;;;0.25;0.00;;;;;17.86;100.00;100422.38;5055773;28;45301;-87
2021/10/21 05:46:26;;;;;;;;;4.25;1.00;;;;;17.86;100.00;100412.53;5042271;28;47044;-88
2021/10/21 05:48:51;;;;;;;;;0.75;0.00;;;;;17.92;100.00;100416.41;5058216;28;45446;-84
2021/10/21 05:51:17;;;;;;;;;2.50;1.00;;;;;17.86;100.00;100423.22;5042913;28;45351;-84
2021/10/21 05:53:43;;;;;;;;;2.00;0.75;;;;;17.97;100.00;100429.28;5060021;28;45300;-84
2021/10/21 05:56:08;;;;;;;;;0.75;0.50;;;;;17.91;100.00;100428.09;5059929;28;46284;-84
2021/10/21 05:58:34;;;;;;;;;6.00;1.00;;;;;17.79;100.00;100432.03;5044220;28;46011;-85
2021/10/21 06:00:59;;;;;;;;;5.25;1.75;;;;;17.73;100.00;100427.31;5062113;28;46563;-84
2021/10/21 06:03:26;;;;;;;;;3.50;1.00;;;;;17.88;100.00;100442.59;5063068;28;45424;-85
2021/10/21 06:05:51;;;;;;;;;2.00;0.25;;;;;17.78;100.00;100441.88;5073876;28;45409;-84
2021/10/21 06:08:17;;;;;;;;;1.50;0.75;;;;;17.79;100.00;100448.88;5066598;28;45453;-84
2021/10/21 06:10:42;;;;;;;;;1.75;0.25;;;;;17.81;100.00;100446.06;5070686;28;45744;-85
2021/10/21 06:13:09;;;;;;;;;1.00;1.00;;;;;17.84;100.00;100448.44;5053281;28;45483;-85
2021/10/21 06:15:34;;;;;;;;;0.00;0.00;;;;;17.76;100.00;100459.88;5073041;28;46593;-85
2021/10/21 06:18:03;;;;;;;;;7.50;1.00;;;;;17.76;100.00;100459.88;5075558;27;45462;-85
2021/10/21 06:20:29;;;;;;;;;1.00;1.00;;;;;17.76;100.00;100462.53;5048357;28;44725;-85
2021/10/21 06:22:55;;;;;;;;;2.00;1.50;;;;;17.65;100.00;100467.31;5081769;28;45333;-85
2021/10/21 06:25:21;;;;;;;;;4.00;0.75;;;;;17.42;100.00;100477.59;5051397;28;47487;-86
2021/10/21 06:27:46;;;;;;;;;4.00;1.00;;;;;17.41;100.00;100476.75;5082364;28;45368;-84
2021/10/21 06:30:12;;;;;;;;;2.25;2.00;;;;;17.38;100.00;100469.09;5074261;28;45495;-84
2021/10/21 06:32:40;;;;;;;;;5.75;1.00;;;;;17.34;100.00;100480.22;5048508;28;45698;-83
2021/10/21 06:35:08;;;;;;;;;2.50;1.00;;;;;17.34;100.00;100472.19;5074952;28;45461;-83
2021/10/21 06:37:33;;;;;;;;;2.50;1.00;;;;;17.39;100.00;100483.28;5061721;28;45587;-84
2021/10/21 06:39:59;;;;;;;;;6.00;1.00;;;;;17.32;100.00;100479.50;5062754;28;45793;-83
2021/10/21 06:42:25;;;;;;;;;1.00;1.00;;;;;17.29;100.00;100498.53;5045063;28;45466;-84
2021/10/21 06:44:52;;;;;;;;;2.50;1.00;;;;;17.27;100.00;100490.66;5070672;28;47927;-85
2021/10/21 06:47:17;;;;;;;;;1.75;1.75;;;;;17.33;100.00;100484.69;5068199;28;45752;-86
2021/10/21 06:49:43;;;;;;;;;5.50;3.00;;;;;17.32;100.00;100492.84;5057690;28;46554;-86
2021/10/21 06:52:09;;;;;;;;;2.50;2.00;;;;;17.49;100.00;100508.03;5050197;28;45684;-86
2021/10/21 06:54:34;;;;;;;;;2.75;2.00;;;;;17.80;100.00;100522.69;5062872;28;46612;-85
2021/10/21 06:57:00;;;;;;;;;2.00;1.00;;;;;17.55;100.00;100507.44;5044072;27;45583;-84
2021/10/21 06:59:26;;;;;;;;;1.75;1.00;;;;;17.43;100.00;100519.31;5063135;28;45390;-85
2021/10/21 07:01:52;;;;;;;;;3.75;2.00;;;;;17.48;100.00;100519.72;5069601;28;45584;-85
2021/10/21 07:04:17;;;;;;;;;1.00;1.00;;;;;17.67;100.00;100527.56;5066136;28;45352;-85
2021/10/21 07:06:43;;;;;;;;;0.75;0.75;;;;;17.92;100.00;100528.63;5066545;28;45356;-84
2021/10/21 07:09:08;;;;;;;;;3.00;1.00;;;;;17.73;100.00;100539.50;5076234;28;45397;-85
2021/10/21 07:11:34;;;;;;;;;3.50;1.75;;;;;17.81;100.00;100532.38;5072021;28;45315;-85
2021/10/21 07:13:59;;;;;;;;;5.50;1.75;;;;;18.08;100.00;100538.56;5059754;28;45840;-84
2021/10/21 07:16:24;;;;;;;;;5.75;1.50;;;;;17.99;100.00;100544.84;5043458;28;45498;-85
2021/10/21 07:18:50;;;;;;;;;5.00;1.00;;;;;17.74;100.00;100555.38;5068544;28;45769;-85
2021/10/21 07:21:17;;;;;;;;;3.25;1.00;;;;;17.59;100.00;100552.34;5064460;28;45390;-85
2021/10/21 07:23:47;;;;;;;;;3.00;1.75;;;;;17.67;100.00;100551.59;5069445;28;45476;-85
2021/10/21 07:26:14;;;;;;;;;2.00;1.00;;;;;17.67;100.00;100556.94;5063407;28;45551;-85
2021/10/21 07:28:39;;;;;;;;;9.25;1.25;;;;;17.77;100.00;100548.84;5059116;28;45491;-84
2021/10/21 07:31:05;;;;;;;;;7.25;2.00;;;;;17.93;100.00;100567.72;5041159;28;45722;-84
2021/10/21 07:33:30;;;;;;;;;6.75;2.00;;;;;18.10;100.00;100563.31;5058852;28;46240;-84
2021/10/21 07:35:57;;;;;;;;;2.00;1.75;;;;;18.24;100.00;100568.91;5031640;28;45729;-84
2021/10/21 07:38:23;;;;;;;;;5.00;1.25;;;;;18.28;100.00;100566.78;5026677;28;45400;-85
2021/10/21 07:40:48;;;;;;;;;4.75;1.25;;;;;18.35;100.00;100573.16;5058869;28;45331;-83
2021/10/21 07:43:14;;;;;;;;;1.00;1.00;;;;;18.24;100.00;100589.47;5060090;28;46340;-87
2021/10/21 07:45:40;;;;;;;;;4.00;1.25;;;;;18.42;100.00;100587.56;5058851;28;45161;-84
2021/10/21 07:48:06;;;;;;;;;3.50;1.75;;;;;19.02;100.00;100600.97;5040991;28;45384;-83
2021/10/21 07:50:33;;;;;;;;;3.50;1.50;;;;;20.03;100.00;100586.41;5058750;28;45427;-83
2021/10/21 07:53:01;;;;;;;;;5.50;2.50;;;;;20.92;100.00;100601.53;5046685;28;45503;-83
2021/10/21 07:55:26;;;;;;;;;6.50;3.00;;;;;21.83;100.00;100595.50;5039090;28;45490;-83
2021/10/21 07:57:52;;;;;;;;;8.50;3.00;;;;;22.66;100.00;100611.56;5041752;28;45368;-83
2021/10/21 08:00:18;;;;;;;;;2.50;2.50;;;;;23.41;100.00;100614.81;5062675;28;45340;-84
2021/10/21 08:02:43;;;;;;;;;6.75;1.00;;;;;24.01;97.96;100602.84;5033455;28;48153;-83
2021/10/21 08:05:10;;;;;;;;;3.00;3.00;;;;;24.17;93.32;100609.81;5035588;28;45371;-84
2021/10/21 08:07:48;;;;;;;;;2.00;2.00;;;;;24.67;98.02;100599.81;5055726;28;45233;-84
2021/10/21 08:10:16;;;;;;;;;6.50;2.00;;;;;25.30;87.58;100612.22;5046678;28;45348;-85
2021/10/21 08:12:41;;;;;;;;;6.00;2.00;;;;;25.23;81.40;100619.44;5058258;28;45502;-84
2021/10/21 08:15:09;;;;;;;;;6.75;2.00;;;;;25.38;80.55;100613.91;5060350;28;45439;-84
2021/10/21 08:17:35;;;;;;;;;2.00;1.75;;;;;25.86;81.46;100622.78;5040200;28;45316;-84
2021/10/21 08:20:00;;;;;;;;;2.25;2.25;;;;;26.22;79.40;100620.50;5058703;28;45509;-84
2021/10/21 08:22:26;;;;;;;;;6.75;3.00;;;;;26.68;79.62;100625.91;5040198;28;48062;-84
2021/10/21 08:24:53;;;;;;;;;3.00;2.00;;;;;26.48;73.32;100625.13;5039968;28;45278;-84
2021/10/21 08:27:19;;;;;;;;;4.00;2.50;;;;;26.63;75.52;100630.31;5054124;28;45489;-84
2021/10/21 08:29:45;;;;;;;;;3.25;2.00;;;;;26.72;72.35;100653.41;5049704;28;45561;-85
2021/10/21 08:32:12;;;;;;;;;3.00;1.25;;;;;26.69;71.52;100627.56;5043525;28;46211;-84
2021/10/21 08:34:38;;;;;;;;;4.25;2.75;;;;;26.62;71.00;100631.34;5062086;28;45423;-84
2021/10/21 08:37:06;;;;;;;;;4.00;1.50;;;;;27.27;70.13;100621.38;5071402;28;45321;-84
2021/10/21 08:39:34;;;;;;;;;6.25;2.00;;;;;26.93;68.81;100627.97;5065602;28;45488;-85
2021/10/21 08:42:00;;;;;;;;;2.25;2.25;;;;;27.22;69.06;100630.19;5042880;28;47225;-84
2021/10/21 08:44:25;;;;;;;;;4.00;1.00;;;;;27.37;67.68;100617.16;5061543;28;45413;-84
2021/10/21 08:46:53;;;;;;;;;2.00;2.00;;;;;27.64;66.65;100622.47;5043749;28;45437;-85
2021/10/21 08:49:19;;;;;;;;;5.00;2.00;;;;;27.99;67.68;100623.69;5061437;28;45387;-84
2021/10/21 08:51:45;;;;;;;;;2.25;2.25;;;;;28.18;64.37;100630.06;5061592;28;45392;-84
2021/10/21 08:54:10;;;;;;;;;4.25;2.00;;;;;28.24;62.27;100645.44;5061337;28;45434;-84
2021/10/21 08:56:37;;;;;;;;;5.00;1.00;;;;;27.80;63.11;100665.38;5061305;28;45417;-84
2021/10/21 08:59:03;;;;;;;;;7.00;2.25;;;;;27.98;64.45;100643.75;5061029;28;45345;-84
2021/10/21 09:09:05;;;;;;;;;3.25;1.00;;;;;29.10;58.86;100631.88;5061088;28;45466;-84
2021/10/21 09:11:30;;;;;;;;;2.75;1.00;;;;;29.20;55.46;100651.22;5061282;28;45398;-85
2021/10/21 09:14:10;;;;;;;;;4.25;1.25;;;;;29.78;55.83;100635.16;5043414;28;45432;-85
2021/10/21 09:16:39;;;;;;;;;5.00;1.25;;;;;29.36;53.80;100628.03;5062990;28;45319;-85
2021/10/21 09:19:11;;;;;;;;;5.50;2.00;;;;;29.38;54.31;100628.63;5056862;28;45466;-85
2021/10/21 09:21:39;;;;;;;;;2.00;1.25;;;;;29.30;53.93;100643.34;5033281;28;47638;-85
2021/10/21 09:24:28;;;;;;;;;3.00;1.00;;;;;28.76;53.56;100649.59;5036623;28;45564;-85
2021/10/21 09:27:14;;;;;;;;;3.50;1.00;;;;;28.44;54.15;100648.84;5042122;28;45473;-85
2021/10/21 09:29:51;;;;;;;;;1.50;1.50;;;;;28.79;55.95;100630.13;5042508;28;45747;-85
2021/10/21 09:32:20;;;;;;;;;4.50;2.50;;;;;28.59;55.40;100673.75;5061154;28;45415;-85
2021/10/21 09:34:53;;;;;;;;;6.25;4.00;;;;;28.15;55.67;100646.75;5042217;28;45974;-85
2021/10/21 09:37:41;;;;;;;;;6.50;5.00;;;;;27.96;57.88;100655.88;5053328;27;45722;-85
2021/10/21 09:40:09;;;;;;;;;9.00;8.00;;;;;27.88;57.72;100657.78;5060232;28;45403;-85
2021/10/21 09:42:35;;;;;;;;;12.75;7.75;;;;;27.63;59.36;100662.34;5060110;28;46362;-85
2021/10/21 09:45:12;;;;;;;;;6.75;3.50;;;;;27.19;60.09;100650.41;5038795;28;46084;-85
2021/10/21 09:47:41;;;;;;;;;5.00;3.75;;;;;27.20;60.82;100653.94;5042808;28;45367;-85
2021/10/21 09:50:17;;;;;;;;;4.25;1.50;;;;;27.11;61.08;100649.81;5036716;28;45668;-86
2021/10/21 09:52:59;;;;;;;;;2.25;0.25;;;;;26.44;62.77;100656.34;5060500;28;45481;-85
2021/10/21 09:55:25;;;;;;;;;3.00;1.00;;;;;26.07;64.27;100666.72;5060530;28;45375;-85
2021/10/21 09:57:51;;;;;;;;;4.00;2.00;;;;;25.48;67.43;100658.44;5061771;28;45513;-85
2021/10/21 10:00:19;;;;;;;;;2.75;1.25;;;;;25.30;68.25;100666.28;5063517;28;45686;-85
2021/10/21 10:02:44;;;;;;;;;1.75;1.25;;;;;25.41;69.85;100671.09;5062731;28;45333;-85
2021/10/21 10:05:14;;;;;;;;;1.75;1.00;;;;;25.51;69.54;100670.72;5063237;28;45308;-85
2021/10/21 10:07:40;;;;;;;;;1.50;1.50;;;;;25.89;69.51;100677.31;5073517;28;45308;-84
2021/10/21 10:10:06;;;;;;;;;4.00;1.00;;;;;25.75;68.52;100658.56;5060173;28;45391;-82
2021/10/21 10:12:32;;;;;;;;;2.50;0.00;;;;;25.48;69.88;100663.84;5060141;28;45347;-83
2021/10/21 10:14:58;;;;;;;;;3.00;1.25;;;;;25.64;70.69;100655.41;5060021;28;46662;-83
2021/10/21 10:17:27;;;;;;;;;6.00;1.75;;;;;25.41;70.67;100656.72;5067501;28;45453;-83
2021/10/21 10:19:52;;;;;;;;;6.50;3.00;;;;;25.46;71.48;100657.81;5060230;28;45606;-83
2021/10/21 10:22:36;;;;;;;;;3.25;1.50;;;;;25.21;71.94;100662.91;5041968;28;48076;-83
2021/10/21 10:25:16;;;;;;;;;4.25;3.00;;;;;24.48;74.61;100656.19;5029965;28;45593;-82
2021/10/21 10:28:06;;;;;;;;;0.75;0.00;;;;;24.26;76.76;100668.03;5071793;27;45463;-82
2021/10/21 10:30:50;;;;;;;;;2.00;0.00;;;;;24.01;79.76;100670.28;5059538;28;45266;-84
2021/10/21 10:33:43;;;;;;;;;2.50;1.00;;;;;23.77;81.24;100657.97;5059075;28;45427;-83
2021/10/21 10:36:30;;;;;;;;;0.25;0.00;;;;;23.22;84.85;100657.72;5042277;28;45619;-85
2021/10/21 10:39:06;;;;;;;;;1.25;1.00;;;;;23.29;85.36;100654.09;5070499;28;45450;-85
2021/10/21 10:41:41;;;;;;;;;2.00;2.00;;;;;23.20;86.95;100654.38;5064852;28;45384;-84
2021/10/21 10:44:06;;;;;;;;;4.50;2.00;;;;;22.81;90.55;100655.50;5044307;28;45647;-84
2021/10/21 10:46:52;;;;;;;;;3.25;2.50;;;;;22.08;100.00;100663.38;5055177;28;45470;-84
2021/10/21 10:49:50;;;;;;;;;3.25;1.00;;;;;21.69;100.00;100668.81;5057406;28;45444;-83
2021/10/21 10:52:17;;;;;;;;;3.25;0.25;;;;;21.61;100.00;100662.50;5023626;28;45447;-85
2021/10/21 10:54:42;;;;;;;;;4.00;1.50;;;;;21.36;100.00;100674.38;5037584;28;47673;-84
2021/10/21 10:57:13;;;;;;;;;8.25;2.00;;;;;21.08;100.00;100681.16;5039710;28;45412;-85
2021/10/21 10:59:39;;;;;;;;;3.75;1.00;;;;;20.88;100.00;100678.88;5056473;28;45387;-84
2021/10/21 11:02:24;;;;;;;;;6.75;1.50;;;;;20.95;100.00;100687.06;5038719;28;45604;-85
2021/10/21 11:04:53;;;;;;;;;6.00;1.25;;;;;20.99;100.00;100677.69;5038772;28;47397;-83
2021/10/21 11:07:22;;;;;;;;;5.50;3.00;;;;;21.11;100.00;100678.16;5039777;28;45541;-84
2021/10/21 11:09:49;;;;;;;;;2.50;2.50;;;;;21.24;100.00;100670.41;5057402;28;45458;-84
2021/10/21 11:12:19;;;;;;;;;5.25;1.50;;;;;21.30;100.00;100668.88;5034757;28;45474;-86
2021/10/21 11:14:47;;;;;;;;;3.00;1.50;;;;;21.31;100.00;100663.31;5038967;28;48295;-82
2021/10/21 11:17:13;;;;;;;;;5.50;4.00;;;;;21.41;100.00;100674.69;5057373;28;46848;-83
2021/10/21 11:19:41;;;;;;;;;3.25;0.50;;;;;21.42;100.00;100665.59;5058672;28;45460;-82
2021/10/21 11:22:06;;;;;;;;;7.75;2.25;;;;;21.24;100.00;100667.72;5060088;28;45608;-82
2021/10/21 11:24:51;;;;;;;;;7.50;2.75;;;;;21.25;100.00;100672.91;5039504;28;47097;-82
2021/10/21 11:27:38;;;;;;;;;1.00;1.00;;;;;21.05;100.00;100651.97;5052174;28;46093;-81
2021/10/21 11:30:07;;;;;;;;;2.75;1.75;;;;;20.81;100.00;100659.09;5054277;28;45504;-81